createdAt,value
2023-01-19T05:00:45.771Z,99.99
2023-01-19T05:01:44.532Z,99.99
2023-01-19T05:02:51.516Z,99.99
2023-01-19T05:03:44.407Z,99.99
2023-01-19T05:04:44.408Z,99.99
2023-01-19T05:05:44.386Z,99.99
2023-01-19T05:06:44.447Z,99.99
2023-01-19T05:07:44.367Z,99.99
2023-01-19T05:08:45.438Z,99.99
2023-01-19T05:09:44.337Z,99.99
2023-01-19T05:10:44.374Z,99.99
2023-01-19T05:11:44.322Z,99.99
2023-01-19T05:12:44.373Z,99.99
2023-01-19T05:13:44.318Z,99.99
2023-01-19T05:14:44.319Z,99.99
2023-01-19T05:15:51.308Z,99.99
2023-01-19T05:16:44.270Z,99.99
2023-01-19T05:17:44.239Z,99.99
2023-01-19T05:18:44.315Z,99.99
2023-01-19T05:19:44.244Z,99.99
2023-01-19T05:20:44.222Z,99.99
2023-01-19T05:21:44.189Z,99.99
2023-01-19T05:22:44.198Z,99.99
2023-01-19T05:23:44.158Z,99.99
2023-01-19T05:24:44.258Z,99.99
2023-01-19T05:25:44.145Z,99.99
2023-01-19T05:26:44.226Z,99.99
2023-01-19T05:27:44.111Z,99.99
2023-01-19T05:28:44.165Z,99.99
2023-01-19T05:29:44.101Z,99.99
2023-01-19T05:30:44.139Z,99.99
2023-01-19T05:31:44.070Z,99.99
2023-01-19T05:32:44.125Z,99.99
2023-01-19T05:33:44.056Z,99.99
2023-01-19T05:34:44.287Z,99.99
2023-01-19T05:35:44.024Z,99.99
2023-01-19T05:36:44.041Z,99.99
2023-01-19T05:37:43.992Z,99.99
2023-01-19T05:38:44.078Z,99.99
2023-01-19T05:39:43.970Z,99.99
2023-01-19T05:40:44.013Z,99.99
2023-01-19T05:41:43.966Z,99.99
2023-01-19T05:42:43.973Z,99.99
2023-01-19T05:43:43.920Z,99.99
2023-01-19T05:44:43.990Z,99.99
2023-01-19T05:45:43.890Z,99.99
2023-01-19T05:46:43.923Z,99.99
2023-01-19T05:47:43.867Z,99.99
2023-01-19T05:48:43.904Z,99.99
2023-01-19T05:49:43.849Z,99.99
2023-01-19T05:50:44.099Z,99.99
2023-01-19T05:51:43.846Z,99.99
2023-01-19T05:52:43.829Z,99.99
2023-01-19T05:53:43.797Z,99.99
2023-01-19T05:54:43.805Z,99.99
2023-01-19T05:55:43.769Z,99.99
2023-01-19T05:56:43.836Z,99.99
2023-01-19T05:57:43.751Z,99.99
2023-01-19T05:58:43.756Z,99.99
2023-01-19T05:59:43.726Z,99.99
2023-01-19T06:00:43.731Z,99.99
2023-01-19T06:01:43.912Z,99.99
2023-01-19T06:02:43.807Z,99.99
2023-01-19T06:03:43.676Z,99.99
2023-01-19T06:04:43.673Z,99.99
2023-01-19T06:05:43.631Z,99.99
2023-01-19T06:06:43.649Z,99.99
2023-01-19T06:07:43.699Z,99.99
2023-01-19T06:08:43.626Z,99.99
2023-01-19T06:09:43.589Z,99.99
2023-01-19T06:10:43.638Z,99.99
2023-01-19T06:11:43.559Z,99.99
2023-01-19T06:12:43.708Z,99.99
2023-01-19T06:13:43.556Z,99.99
2023-01-19T06:14:43.561Z,99.99
2023-01-19T06:15:43.518Z,99.99
2023-01-19T06:16:43.627Z,99.99
2023-01-19T06:17:43.572Z,99.99
2023-01-19T06:18:43.596Z,99.99
2023-01-19T06:19:43.480Z,99.99
2023-01-19T06:20:43.479Z,99.99
2023-01-19T06:21:43.453Z,99.99
2023-01-19T06:22:43.513Z,99.99
2023-01-19T06:23:43.444Z,99.99
2023-01-19T06:24:43.557Z,99.99
2023-01-19T06:25:43.401Z,99.99
2023-01-19T06:26:43.398Z,99.99
2023-01-19T06:27:43.366Z,99.99
2023-01-19T06:28:43.381Z,99.99
2023-01-19T06:29:43.354Z,99.99
2023-01-19T06:30:43.519Z,99.99
2023-01-19T06:31:43.579Z,99.99
2023-01-19T06:32:43.363Z,99.99
2023-01-19T06:33:43.296Z,99.99
2023-01-19T06:34:43.310Z,99.99
2023-01-19T06:35:43.268Z,99.99
2023-01-19T06:36:43.400Z,99.99
2023-01-19T06:37:44.781Z,99.99
2023-01-19T06:38:43.261Z,99.99
2023-01-19T06:39:43.222Z,99.99
2023-01-19T06:40:43.237Z,99.99
2023-01-19T06:41:43.210Z,99.99
2023-01-19T06:42:43.244Z,99.99
2023-01-19T06:43:43.240Z,99.99
2023-01-19T06:44:43.185Z,99.99
2023-01-19T06:45:45.126Z,99.99
2023-01-19T06:46:43.164Z,99.99
2023-01-19T06:47:43.204Z,99.99
2023-01-19T06:48:43.131Z,99.99
2023-01-19T06:49:43.106Z,99.99
2023-01-19T06:50:43.106Z,99.99
2023-01-19T06:51:43.075Z,99.99
2023-01-19T06:52:43.321Z,99.99
2023-01-19T06:53:43.053Z,99.99
2023-01-19T06:54:43.063Z,99.99
2023-01-19T06:55:43.027Z,99.99
2023-01-19T06:56:43.062Z,99.99
2023-01-19T06:57:43.002Z,99.99
2023-01-19T06:58:43.694Z,99.99
2023-01-19T06:59:42.998Z,99.99
2023-01-19T07:00:43.093Z,99.99
2023-01-19T07:01:43.072Z,99.99
2023-01-19T07:02:43.065Z,99.99
2023-01-19T07:03:43.160Z,99.99
2023-01-19T07:04:43.016Z,99.99
2023-01-19T07:05:42.925Z,99.99
2023-01-19T07:06:42.917Z,99.99
2023-01-19T07:07:42.874Z,99.99
2023-01-19T07:08:42.888Z,99.99
2023-01-19T07:09:42.856Z,99.99
2023-01-19T07:11:26.446Z,99.99
2023-01-19T07:11:43.850Z,99.99
2023-01-19T07:12:42.845Z,99.99
2023-01-19T07:13:42.867Z,99.99
2023-01-19T07:14:42.808Z,99.99
2023-01-19T07:15:42.835Z,99.99
2023-01-19T07:16:42.803Z,99.99
2023-01-19T07:17:42.754Z,99.99
2023-01-19T07:18:42.777Z,99.99
2023-01-19T07:19:42.752Z,99.99
2023-01-19T07:20:42.743Z,99.99
2023-01-19T07:21:42.780Z,99.99
2023-01-19T07:22:42.711Z,99.99
2023-01-19T07:23:42.692Z,99.99
2023-01-19T07:24:42.698Z,99.99
2023-01-19T07:25:42.663Z,99.99
2023-01-19T07:26:42.668Z,99.99
2023-01-19T07:27:42.691Z,99.99
2023-01-19T07:28:42.650Z,99.99
2023-01-19T07:29:42.626Z,99.99
2023-01-19T07:30:42.746Z,99.99
2023-01-19T07:31:42.669Z,99.99
2023-01-19T07:32:42.590Z,99.99
2023-01-19T07:33:42.622Z,99.99
2023-01-19T07:34:42.585Z,99.99
2023-01-19T07:35:42.537Z,99.99
2023-01-19T07:36:42.545Z,99.99
2023-01-19T07:37:42.544Z,99.99
2023-01-19T07:38:42.553Z,99.99
2023-01-19T07:39:42.507Z,99.99
2023-01-19T07:40:42.490Z,99.99
2023-01-19T07:41:42.484Z,99.99
2023-01-19T07:42:42.442Z,99.99
2023-01-19T07:43:42.460Z,99.99
2023-01-19T07:44:42.540Z,99.99
2023-01-19T07:45:42.517Z,99.99
2023-01-19T07:46:42.409Z,99.99
2023-01-19T07:47:42.406Z,99.99
2023-01-19T07:48:42.364Z,99.99
2023-01-19T07:49:42.388Z,99.99
2023-01-19T07:50:42.384Z,99.99
2023-01-19T07:51:42.343Z,99.99
2023-01-19T07:52:42.314Z,99.99
2023-01-19T07:53:42.969Z,99.99
2023-01-19T07:54:42.303Z,99.99
2023-01-19T07:55:42.305Z,99.99
2023-01-19T07:56:42.260Z,99.99
2023-01-19T07:57:42.270Z,99.99
2023-01-19T07:58:42.237Z,99.99
2023-01-19T07:59:42.705Z,99.99
2023-01-19T08:00:42.219Z,99.99
2023-01-19T08:01:42.384Z,99.73
2023-01-19T08:02:42.198Z,99.52
2023-01-19T08:03:42.195Z,99.21
2023-01-19T08:04:42.231Z,98.89
2023-01-19T08:05:42.451Z,98.58
2023-01-19T08:06:42.145Z,98.26
2023-01-19T08:07:42.150Z,98.36
2023-01-19T08:08:42.166Z,98.05
2023-01-19T08:09:42.157Z,97.84
2023-01-19T08:10:42.082Z,97.74
2023-01-19T08:11:42.160Z,97.42
2023-01-19T08:12:42.090Z,97.63
2023-01-19T08:13:42.063Z,97.53
2023-01-19T08:14:42.111Z,97.63
2023-01-19T08:15:42.144Z,97.74
2023-01-19T08:16:42.011Z,97.74
2023-01-19T08:17:42.019Z,97.42
2023-01-19T08:18:42.002Z,97.63
2023-01-19T08:19:41.999Z,97.74
2023-01-19T08:20:42.054Z,97.42
2023-01-19T08:21:41.992Z,97.11
2023-01-19T08:22:41.958Z,97.21
2023-01-19T08:23:41.987Z,97.21
2023-01-19T08:24:41.909Z,97.11
2023-01-19T08:25:42.006Z,96.43
2023-01-19T08:26:41.949Z,96.01
2023-01-19T08:27:41.896Z,96.22
2023-01-19T08:28:41.869Z,96.12
2023-01-19T08:29:41.867Z,95.76
2023-01-19T08:30:41.912Z,95.65
2023-01-19T08:31:41.939Z,95.08
2023-01-19T08:32:42.494Z,94.56
2023-01-19T08:33:41.823Z,93.51
2023-01-19T08:34:41.782Z,93.40
2023-01-19T08:35:41.788Z,92.99
2023-01-19T08:36:41.752Z,92.88
2023-01-19T08:37:41.780Z,92.88
2023-01-19T08:38:41.952Z,93.44
2023-01-19T08:39:41.744Z,93.34
2023-01-19T08:40:41.710Z,93.44
2023-01-19T08:41:41.722Z,93.55
2023-01-19T08:42:41.713Z,93.24
2023-01-19T08:43:41.688Z,93.24
2023-01-19T08:44:57.360Z,93.13
2023-01-19T08:45:42.670Z,92.77
2023-01-19T08:46:41.700Z,92.77
2023-01-19T08:47:41.701Z,92.46
2023-01-19T08:48:41.608Z,92.46
2023-01-19T08:49:41.625Z,91.94
2023-01-19T08:50:41.878Z,92.04
2023-01-19T08:51:41.587Z,92.35
2023-01-19T08:52:41.565Z,92.77
2023-01-19T08:53:41.566Z,92.67
2023-01-19T08:54:41.545Z,92.08
2023-01-19T08:55:41.556Z,92.29
2023-01-19T08:56:41.565Z,92.08
2023-01-19T08:57:41.517Z,92.92
2023-01-19T08:58:41.482Z,93.24
2023-01-19T08:59:41.504Z,92.77
2023-01-19T09:00:41.457Z,91.94
2023-01-19T09:01:41.680Z,91.41
2023-01-19T09:02:41.523Z,91.83
2023-01-19T09:03:41.465Z,92.32
2023-01-19T09:04:41.973Z,91.68
2023-01-19T09:05:41.412Z,91.05
2023-01-19T09:06:41.455Z,90.64
2023-01-19T09:07:41.382Z,90.17
2023-01-19T09:08:41.351Z,89.54
2023-01-19T09:09:41.361Z,88.81
2023-01-19T09:10:41.450Z,88.81
2023-01-19T09:11:41.368Z,89.34
2023-01-19T09:12:41.299Z,89.12
2023-01-19T09:13:41.375Z,89.02
2023-01-19T09:14:41.302Z,88.81
2023-01-19T09:15:41.445Z,89.75
2023-01-19T09:16:41.283Z,90.17
2023-01-19T09:17:41.263Z,89.75
2023-01-19T09:18:41.235Z,89.44
2023-01-19T09:19:41.245Z,89.92
2023-01-19T09:20:41.244Z,89.09
2023-01-19T09:21:41.214Z,88.04
2023-01-19T09:22:41.179Z,87.99
2023-01-19T09:23:41.198Z,88.31
2023-01-19T09:24:41.152Z,88.21
2023-01-19T09:25:41.165Z,87.47
2023-01-19T09:26:41.343Z,88.21
2023-01-19T09:27:41.143Z,87.89
2023-01-19T09:28:41.119Z,87.64
2023-01-19T09:29:41.104Z,87.64
2023-01-19T09:30:41.097Z,87.85
2023-01-19T09:31:41.162Z,87.43
2023-01-19T09:32:41.152Z,87.12
2023-01-19T09:33:41.052Z,87.08
2023-01-19T09:34:41.027Z,86.45
2023-01-19T09:35:41.041Z,86.45
2023-01-19T09:36:41.005Z,86.45
2023-01-19T09:37:41.020Z,86.98
2023-01-19T09:38:41.072Z,86.83
2023-01-19T09:39:41.017Z,86.10
2023-01-19T09:40:42.094Z,85.05
2023-01-19T09:41:40.981Z,84.74
2023-01-19T09:42:40.920Z,84.84
2023-01-19T09:43:40.972Z,85.01
2023-01-19T09:44:41.748Z,84.91
2023-01-19T09:45:40.982Z,84.17
2023-01-19T09:46:40.941Z,83.90
2023-01-19T09:47:40.892Z,83.90
2023-01-19T09:48:40.854Z,84.84
2023-01-19T09:49:40.857Z,84.91
2023-01-19T09:50:42.495Z,85.53
2023-01-19T09:51:40.837Z,84.56
2023-01-19T09:52:40.814Z,83.62
2023-01-19T09:53:40.807Z,82.99
2023-01-19T09:54:40.765Z,83.26
2023-01-19T09:55:40.791Z,82.53
2023-01-19T09:56:40.917Z,81.49
2023-01-19T09:57:40.761Z,80.96
2023-01-19T09:58:40.724Z,81.07
2023-01-19T09:59:40.744Z,81.07
2023-01-19T10:00:40.741Z,81.90
2023-01-19T10:01:40.732Z,81.49
2023-01-19T10:02:41.435Z,81.56
2023-01-19T10:03:40.690Z,81.35
2023-01-19T10:04:40.640Z,81.13
2023-01-19T10:05:40.654Z,80.99
2023-01-19T10:06:40.611Z,80.16
2023-01-19T10:07:40.640Z,79.85
2023-01-19T10:08:40.690Z,79.22
2023-01-19T10:09:40.599Z,79.33
2023-01-19T10:10:40.580Z,79.39
2023-01-19T10:11:51.821Z,78.56
2023-01-19T10:12:41.556Z,78.66
2023-01-19T10:13:40.558Z,77.80
2023-01-19T10:14:40.618Z,77.58
2023-01-19T10:15:40.542Z,77.37
2023-01-19T10:16:41.060Z,77.58
2023-01-19T10:17:40.498Z,77.66
2023-01-19T10:18:40.473Z,77.03
2023-01-19T10:19:40.487Z,77.45
2023-01-19T10:20:40.450Z,77.66
2023-01-19T10:21:40.457Z,77.03
2023-01-19T10:22:41.414Z,77.34
2023-01-19T10:23:40.425Z,76.09
2023-01-19T10:24:40.401Z,75.98
2023-01-19T10:25:40.436Z,75.98
2023-01-19T10:26:40.382Z,75.43
2023-01-19T10:27:40.421Z,75.46
2023-01-19T10:28:41.180Z,76.57
2023-01-19T10:29:40.354Z,76.26
2023-01-19T10:30:40.373Z,76.37
2023-01-19T10:31:40.491Z,75.85
2023-01-19T10:32:40.330Z,75.64
2023-01-19T10:33:40.303Z,76.23
2023-01-19T10:34:40.532Z,74.98
2023-01-19T10:35:40.312Z,75.29
2023-01-19T10:36:40.245Z,75.60
2023-01-19T10:37:40.231Z,75.40
2023-01-19T10:38:40.218Z,75.26
2023-01-19T10:39:40.221Z,74.53
2023-01-19T10:40:40.365Z,74.21
2023-01-19T10:41:40.206Z,74.21
2023-01-19T10:42:40.244Z,74.01
2023-01-19T10:43:40.178Z,74.01
2023-01-19T10:44:40.165Z,74.43
2023-01-19T10:45:40.189Z,74.74
2023-01-19T10:46:40.255Z,74.95
2023-01-19T10:47:40.149Z,74.74
2023-01-19T10:48:40.092Z,74.43
2023-01-19T10:49:40.127Z,74.63
2023-01-19T10:50:40.115Z,74.43
2023-01-19T10:51:40.104Z,74.53
2023-01-19T10:52:40.263Z,74.21
2023-01-19T10:53:40.046Z,75.15
2023-01-19T10:54:40.018Z,74.46
2023-01-19T10:55:40.100Z,74.87
2023-01-19T10:56:39.973Z,75.15
2023-01-19T10:57:40.015Z,75.15
2023-01-19T10:58:40.201Z,74.63
2023-01-19T10:59:39.991Z,74.43
2023-01-19T11:00:40.039Z,74.56
2023-01-19T11:01:39.994Z,75.71
2023-01-19T11:02:39.939Z,75.78
2023-01-19T11:03:40.015Z,75.26
2023-01-19T11:04:39.983Z,75.09
2023-01-19T11:05:39.890Z,74.98
2023-01-19T11:06:40.061Z,75.71
2023-01-19T11:07:39.855Z,75.50
2023-01-19T11:08:39.822Z,75.71
2023-01-19T11:09:39.826Z,75.95
2023-01-19T11:10:39.803Z,76.23
2023-01-19T11:11:39.811Z,76.12
2023-01-19T11:12:39.814Z,75.50
2023-01-19T11:13:39.779Z,74.77
2023-01-19T11:14:39.745Z,75.09
2023-01-19T11:15:46.807Z,75.29
2023-01-19T11:16:39.792Z,75.01
2023-01-19T11:17:39.719Z,75.32
2023-01-19T11:18:39.756Z,76.78
2023-01-19T11:19:39.772Z,76.26
2023-01-19T11:20:39.715Z,76.06
2023-01-19T11:21:39.692Z,76.37
2023-01-19T11:22:39.688Z,76.47
2023-01-19T11:23:39.676Z,76.57
2023-01-19T11:24:39.633Z,76.51
2023-01-19T11:25:39.628Z,76.61
2023-01-19T11:26:39.594Z,76.30
2023-01-19T11:27:40.691Z,77.03
2023-01-19T11:28:39.577Z,76.92
2023-01-19T11:29:39.588Z,76.72
2023-01-19T11:30:39.631Z,76.30
2023-01-19T11:31:39.599Z,76.78
2023-01-19T11:32:39.529Z,76.68
2023-01-19T11:33:39.737Z,77.20
2023-01-19T11:34:39.499Z,76.89
2023-01-19T11:35:39.510Z,76.99
2023-01-19T11:36:39.476Z,76.78
2023-01-19T11:37:39.495Z,75.43
2023-01-19T11:38:39.467Z,75.01
2023-01-19T11:39:39.623Z,76.16
2023-01-19T11:40:39.420Z,76.47
2023-01-19T11:41:39.470Z,76.06
2023-01-19T11:42:39.432Z,76.16
2023-01-19T11:43:48.626Z,75.78
2023-01-19T11:44:40.380Z,76.30
2023-01-19T11:45:39.408Z,77.34
2023-01-19T11:46:39.364Z,76.61
2023-01-19T11:47:40.302Z,76.20
2023-01-19T11:48:39.323Z,76.40
2023-01-19T11:49:39.332Z,76.40
2023-01-19T11:50:39.318Z,77.13
2023-01-19T11:51:39.284Z,77.76
2023-01-19T11:52:40.455Z,77.93
2023-01-19T11:53:39.562Z,77.62
2023-01-19T11:54:39.259Z,76.89
2023-01-19T11:55:39.239Z,77.41
2023-01-19T11:56:39.241Z,77.48
2023-01-19T11:57:39.198Z,76.54
2023-01-19T11:58:39.247Z,76.23
2023-01-19T11:59:39.556Z,76.96
2023-01-19T12:00:39.189Z,77.27
2023-01-19T12:01:39.148Z,76.43
2023-01-19T12:02:39.165Z,75.81
2023-01-19T12:03:39.218Z,75.19
2023-01-19T12:04:39.148Z,75.40
2023-01-19T12:05:39.295Z,76.68
2023-01-19T12:06:39.108Z,76.75
2023-01-19T12:07:39.847Z,76.43
2023-01-19T12:08:39.084Z,76.23
2023-01-19T12:09:39.045Z,76.20
2023-01-19T12:10:39.080Z,75.88
2023-01-19T12:11:39.042Z,75.98
2023-01-19T12:12:39.036Z,75.78
2023-01-19T12:13:39.058Z,75.71
2023-01-19T12:14:39.010Z,75.71
2023-01-19T12:15:39.038Z,75.98
2023-01-19T12:16:39.027Z,75.78
2023-01-19T12:17:38.971Z,75.57
2023-01-19T12:18:38.975Z,75.36
2023-01-19T12:19:38.963Z,74.56
2023-01-19T12:20:38.948Z,74.87
2023-01-19T12:21:38.895Z,74.74
2023-01-19T12:22:38.934Z,74.74
2023-01-19T12:23:38.881Z,74.74
2023-01-19T12:24:38.922Z,74.46
2023-01-19T12:25:38.991Z,75.15
2023-01-19T12:26:38.891Z,74.95
2023-01-19T12:27:38.845Z,74.84
2023-01-19T12:28:38.849Z,75.78
2023-01-19T12:29:38.780Z,75.57
2023-01-19T12:30:38.894Z,75.26
2023-01-19T12:31:47.565Z,75.57
2023-01-19T12:32:38.764Z,75.46
2023-01-19T12:33:45.765Z,76.12
2023-01-19T12:34:45.768Z,76.65
2023-01-19T12:35:45.723Z,76.75
2023-01-19T12:36:38.710Z,77.37
2023-01-19T12:37:38.730Z,76.96
2023-01-19T12:38:38.698Z,77.27
2023-01-19T12:39:38.668Z,77.17
2023-01-19T12:40:38.682Z,76.75
2023-01-19T12:41:38.670Z,76.23
2023-01-19T12:42:38.645Z,76.43
2023-01-19T12:43:39.294Z,76.54
2023-01-19T12:44:38.656Z,77.20
2023-01-19T12:45:38.602Z,77.48
2023-01-19T12:46:38.599Z,77.37
2023-01-19T12:47:38.565Z,76.96
2023-01-19T12:48:38.567Z,76.99
2023-01-19T12:49:38.760Z,77.27
2023-01-19T12:50:38.558Z,77.48
2023-01-19T12:51:38.502Z,77.27
2023-01-19T12:52:38.522Z,77.20
2023-01-19T12:53:38.496Z,78.14
2023-01-19T12:54:38.500Z,77.83
2023-01-19T12:55:38.483Z,78.03
2023-01-19T12:56:38.462Z,78.24
2023-01-19T12:57:38.438Z,77.83
2023-01-19T12:58:38.445Z,78.38
2023-01-19T12:59:38.403Z,77.97
2023-01-19T13:00:39.286Z,78.63
2023-01-19T13:01:38.435Z,78.94
2023-01-19T13:02:38.431Z,79.25
2023-01-19T13:03:38.353Z,78.83
2023-01-19T13:04:38.367Z,78.94
2023-01-19T13:05:38.356Z,79.67
2023-01-19T13:06:38.375Z,79.46
2023-01-19T13:07:38.342Z,79.77
2023-01-19T13:08:38.326Z,79.46
2023-01-19T13:09:38.286Z,79.57
2023-01-19T13:10:38.481Z,79.15
2023-01-19T13:11:38.253Z,79.77
2023-01-19T13:12:38.368Z,80.19
2023-01-19T13:13:38.272Z,80.19
2023-01-19T13:14:38.268Z,80.09
2023-01-19T13:15:38.268Z,80.09
2023-01-19T13:16:38.233Z,80.61
2023-01-19T13:17:38.183Z,80.51
2023-01-19T13:18:38.191Z,80.40
2023-01-19T13:19:38.888Z,80.40
2023-01-19T13:20:38.161Z,80.65
2023-01-19T13:21:38.150Z,81.06
2023-01-19T13:22:38.155Z,81.45
2023-01-19T13:23:38.090Z,81.79
2023-01-19T13:24:38.159Z,80.96
2023-01-19T13:25:38.291Z,81.79
2023-01-19T13:26:38.077Z,81.79
2023-01-19T13:27:38.040Z,81.59
2023-01-19T13:28:38.064Z,82.21
2023-01-19T13:29:38.054Z,82.73
2023-01-19T13:30:38.203Z,82.00
2023-01-19T13:31:38.092Z,82.10
2023-01-19T13:32:38.009Z,82.10
2023-01-19T13:33:40.622Z,81.69
2023-01-19T13:34:38.050Z,82.21
2023-01-19T13:35:37.968Z,82.42
2023-01-19T13:36:37.966Z,82.48
2023-01-19T13:37:38.163Z,82.90
2023-01-19T13:38:37.923Z,83.01
2023-01-19T13:39:37.927Z,82.38
2023-01-19T13:40:37.934Z,82.28
2023-01-19T13:41:37.882Z,82.07
2023-01-19T13:42:37.891Z,82.28
2023-01-19T13:43:37.936Z,82.07
2023-01-19T13:44:37.968Z,81.93
2023-01-19T13:45:37.873Z,82.03
2023-01-19T13:46:37.844Z,82.03
2023-01-19T13:47:37.801Z,81.93
2023-01-19T13:48:37.817Z,81.82
2023-01-19T13:49:37.802Z,81.20
2023-01-19T13:50:37.761Z,81.20
2023-01-19T13:51:37.739Z,81.62
2023-01-19T13:52:37.753Z,81.62
2023-01-19T13:53:37.716Z,81.72
2023-01-19T13:54:37.972Z,82.14
2023-01-19T13:55:37.680Z,82.03
2023-01-19T13:56:37.718Z,82.03
2023-01-19T13:57:37.658Z,81.62
2023-01-19T13:58:37.666Z,81.72
2023-01-19T13:59:37.626Z,81.93
2023-01-19T14:00:38.283Z,82.34
2023-01-19T14:01:37.747Z,81.93
2023-01-19T14:02:37.929Z,82.03
2023-01-19T14:03:37.593Z,82.03
2023-01-19T14:04:37.649Z,81.51
2023-01-19T14:05:37.639Z,81.20
2023-01-19T14:06:37.906Z,81.51
2023-01-19T14:07:37.591Z,81.93
2023-01-19T14:08:37.544Z,81.96
2023-01-19T14:09:37.526Z,81.96
2023-01-19T14:10:37.576Z,82.59
2023-01-19T14:11:37.472Z,83.22
2023-01-19T14:12:43.603Z,82.90
2023-01-19T14:13:38.474Z,83.32
2023-01-19T14:14:37.461Z,83.01
2023-01-19T14:15:37.472Z,83.63
2023-01-19T14:16:37.447Z,83.74
2023-01-19T14:17:37.410Z,83.84
2023-01-19T14:18:37.396Z,84.05
2023-01-19T14:19:37.382Z,84.26
2023-01-19T14:20:37.428Z,84.05
2023-01-19T14:21:37.355Z,83.84
2023-01-19T14:22:37.426Z,83.95
2023-01-19T14:23:44.338Z,83.74
2023-01-19T14:24:44.358Z,83.84
2023-01-19T14:25:44.392Z,83.95
2023-01-19T14:26:37.312Z,84.36
2023-01-19T14:27:37.249Z,84.16
2023-01-19T14:28:37.260Z,84.26
2023-01-19T14:29:37.246Z,84.47
2023-01-19T14:30:37.253Z,84.57
2023-01-19T14:31:37.485Z,84.99
2023-01-19T14:32:37.239Z,84.67
2023-01-19T14:33:37.267Z,84.05
2023-01-19T14:34:37.217Z,84.36
2023-01-19T14:35:37.196Z,84.88
2023-01-19T14:36:37.168Z,85.20
2023-01-19T14:37:37.311Z,85.65
2023-01-19T14:38:37.158Z,85.86
2023-01-19T14:39:37.155Z,85.55
2023-01-19T14:40:37.155Z,85.24
2023-01-19T14:41:37.108Z,85.65
2023-01-19T14:42:37.121Z,85.86
2023-01-19T14:43:37.252Z,85.44
2023-01-19T14:44:37.056Z,85.86
2023-01-19T14:45:37.046Z,85.76
2023-01-19T14:46:37.078Z,85.34
2023-01-19T14:47:37.082Z,85.24
2023-01-19T14:48:37.028Z,85.24
2023-01-19T14:49:37.928Z,85.44
2023-01-19T14:50:36.991Z,85.44
2023-01-19T14:51:36.951Z,85.44
2023-01-19T14:52:37.005Z,85.44
2023-01-19T14:53:37.009Z,85.03
2023-01-19T14:54:36.948Z,84.92
2023-01-19T14:55:37.594Z,85.44
2023-01-19T14:56:36.910Z,85.86
2023-01-19T14:57:36.901Z,85.76
2023-01-19T14:58:36.879Z,85.97
2023-01-19T14:59:36.853Z,86.07
2023-01-19T15:00:36.900Z,86.49
2023-01-19T15:01:37.070Z,86.69
2023-01-19T15:02:36.854Z,87.12
2023-01-19T15:03:45.433Z,87.53
2023-01-19T15:04:37.816Z,87.74
2023-01-19T15:05:36.786Z,87.53
2023-01-19T15:06:36.789Z,87.22
2023-01-19T15:07:36.828Z,87.01
2023-01-19T15:08:36.770Z,87.43
2023-01-19T15:09:36.719Z,87.32
2023-01-19T15:10:36.736Z,87.53
2023-01-19T15:11:36.700Z,87.84
2023-01-19T15:12:36.699Z,87.74
2023-01-19T15:13:36.791Z,87.32
2023-01-19T15:14:36.693Z,87.01
2023-01-19T15:15:36.680Z,87.32
2023-01-19T15:16:36.687Z,87.22
2023-01-19T15:17:36.649Z,87.32
2023-01-19T15:18:36.634Z,87.32
2023-01-19T15:19:36.601Z,87.95
2023-01-19T15:20:36.673Z,88.37
2023-01-19T15:21:36.567Z,89.51
2023-01-19T15:22:36.590Z,89.72
2023-01-19T15:23:36.545Z,89.83
2023-01-19T15:24:36.559Z,89.41
2023-01-19T15:25:36.541Z,89.83
2023-01-19T15:26:36.763Z,90.14
2023-01-19T15:27:36.505Z,90.03
2023-01-19T15:28:36.565Z,90.08
2023-01-19T15:29:36.473Z,90.39
2023-01-19T15:30:36.523Z,90.81
2023-01-19T15:31:36.514Z,91.22
2023-01-19T15:32:36.620Z,91.64
2023-01-19T15:33:36.431Z,92.16
2023-01-19T15:34:36.432Z,92.27
2023-01-19T15:35:36.409Z,92.06
2023-01-19T15:36:36.420Z,91.96
2023-01-19T15:37:36.400Z,92.58
2023-01-19T15:38:36.474Z,92.83
2023-01-19T15:39:36.339Z,92.94
2023-01-19T15:40:36.365Z,93.25
2023-01-19T15:41:36.342Z,93.25
2023-01-19T15:42:36.344Z,93.88
2023-01-19T15:43:36.326Z,94.61
2023-01-19T15:44:36.444Z,95.03
2023-01-19T15:45:36.293Z,94.92
2023-01-19T15:46:36.317Z,95.17
2023-01-19T15:47:36.245Z,95.55
2023-01-19T15:48:36.244Z,96.33
2023-01-19T15:49:36.214Z,96.33
2023-01-19T15:50:36.551Z,96.33
2023-01-19T15:51:36.195Z,95.90
2023-01-19T15:52:36.302Z,95.70
2023-01-19T15:53:36.174Z,95.49
2023-01-19T15:54:36.247Z,95.80
2023-01-19T15:55:36.164Z,96.11
2023-01-19T15:56:36.199Z,96.01
2023-01-19T15:57:36.151Z,96.22
2023-01-19T15:58:36.103Z,96.43
2023-01-19T15:59:36.110Z,96.58
2023-01-19T16:00:36.079Z,96.64
2023-01-19T16:01:36.372Z,96.53
2023-01-19T16:02:43.599Z,97.16
2023-01-19T16:03:43.092Z,98.10
2023-01-19T16:04:43.054Z,98.41
2023-01-19T16:05:44.098Z,98.41
2023-01-19T16:06:35.985Z,98.31
2023-01-19T16:07:36.166Z,97.37
2023-01-19T16:08:35.997Z,97.68
2023-01-19T16:09:35.982Z,97.47
2023-01-19T16:10:35.951Z,97.37
2023-01-19T16:11:35.970Z,98.41
2023-01-19T16:12:35.939Z,99.77
2023-01-19T16:13:36.209Z,99.99
2023-01-19T16:14:35.914Z,99.99
2023-01-19T16:15:35.939Z,99.98
2023-01-19T16:16:35.942Z,99.66
2023-01-19T16:17:35.889Z,99.35
2023-01-19T16:18:35.866Z,99.04
2023-01-19T16:19:35.890Z,98.52
2023-01-19T16:20:35.836Z,98.31
2023-01-19T16:21:35.842Z,98.21
2023-01-19T16:22:35.789Z,98.93
2023-01-19T16:23:35.829Z,98.83
2023-01-19T16:24:35.781Z,98.10
2023-01-19T16:25:35.901Z,98.41
2023-01-19T16:26:35.747Z,98.62
2023-01-19T16:27:35.916Z,99.04
2023-01-19T16:28:35.720Z,98.31
2023-01-19T16:29:35.742Z,98.41
2023-01-19T16:30:35.760Z,98.21
2023-01-19T16:31:35.725Z,97.58
2023-01-19T16:32:35.674Z,97.68
2023-01-19T16:33:35.774Z,97.37
2023-01-19T16:34:35.657Z,97.58
2023-01-19T16:35:35.661Z,97.78
2023-01-19T16:36:35.632Z,97.89
2023-01-19T16:37:35.666Z,97.99
2023-01-19T16:38:35.593Z,97.78
2023-01-19T16:39:35.763Z,96.84
2023-01-19T16:40:35.607Z,97.05
2023-01-19T16:41:35.621Z,97.47
2023-01-19T16:42:35.673Z,97.99
2023-01-19T16:43:35.635Z,98.21
2023-01-19T16:44:35.540Z,98.46
2023-01-19T16:45:35.635Z,97.83
2023-01-19T16:46:35.517Z,98.25
2023-01-19T16:47:35.572Z,98.67
2023-01-19T16:48:35.476Z,99.51
2023-01-19T16:49:35.540Z,99.99
2023-01-19T16:50:35.489Z,99.99
2023-01-19T16:51:35.474Z,99.99
2023-01-19T16:52:35.458Z,99.29
2023-01-19T16:53:35.709Z,98.88
2023-01-19T16:54:35.392Z,99.29
2023-01-19T16:55:35.407Z,99.40
2023-01-19T16:56:35.376Z,99.29
2023-01-19T16:57:35.469Z,99.29
2023-01-19T16:58:35.350Z,99.29
2023-01-19T16:59:35.406Z,99.51
2023-01-19T17:00:35.329Z,99.40
2023-01-19T17:01:35.494Z,99.13
2023-01-19T17:02:35.360Z,98.92
2023-01-19T17:03:35.327Z,98.82
2023-01-19T17:04:35.301Z,98.61
2023-01-19T17:05:35.273Z,98.71
2023-01-19T17:06:35.254Z,99.02
2023-01-19T17:07:35.265Z,99.13
2023-01-19T17:08:35.541Z,98.71
2023-01-19T17:09:35.279Z,98.61
2023-01-19T17:10:35.191Z,98.82
2023-01-19T17:11:35.216Z,99.28
2023-01-19T17:12:35.184Z,99.49
2023-01-19T17:13:35.172Z,99.80
2023-01-19T17:14:35.261Z,99.70
2023-01-19T17:16:28.775Z,99.91
2023-01-19T17:17:28.753Z,99.99
2023-01-19T17:18:30.529Z,99.99
2023-01-19T17:19:28.725Z,99.99
2023-01-19T17:20:28.733Z,99.99
2023-01-19T17:21:28.703Z,99.99
2023-01-19T17:22:28.670Z,99.99
2023-01-19T17:23:28.765Z,99.99
2023-01-19T17:24:28.641Z,99.99
2023-01-19T17:25:28.656Z,99.99
2023-01-19T17:26:28.608Z,99.99
2023-01-19T17:27:28.631Z,99.99
2023-01-19T17:28:28.661Z,99.99
2023-01-19T17:29:28.601Z,99.99
2023-01-19T17:30:28.712Z,99.99
2023-01-19T17:31:28.677Z,99.99
2023-01-19T17:32:28.539Z,99.99
2023-01-19T17:33:28.548Z,99.99
2023-01-19T17:34:29.358Z,99.99
2023-01-19T17:35:28.527Z,99.99
2023-01-19T17:36:28.495Z,99.99
2023-01-19T17:37:28.505Z,99.99
2023-01-19T17:38:28.462Z,99.99
2023-01-19T17:39:28.485Z,99.99
2023-01-19T17:40:29.535Z,99.99
2023-01-19T17:41:28.447Z,99.99
2023-01-19T17:42:28.415Z,99.99
2023-01-19T17:43:28.424Z,99.99
2023-01-19T17:44:28.457Z,99.99
2023-01-19T17:45:28.394Z,99.99
2023-01-19T17:46:28.466Z,99.99
2023-01-19T17:47:28.378Z,99.99
2023-01-19T17:48:28.343Z,99.99
2023-01-19T17:49:28.360Z,99.99
2023-01-19T17:50:28.353Z,99.99
2023-01-19T17:51:28.319Z,99.99
2023-01-19T17:52:32.117Z,99.99
2023-01-19T17:53:28.348Z,99.99